Hauptseite
METAR-TAF:

METAR-TAF

Flughäfen :

Gafsa, Tunesien

Breite: 34-25N, Länge: 008-49E, Höhe: 313 m

Beobachtung

Neuester Wetterbericht von vor 57 Minuten, um 01:00 UTC
Wind 5 kt aus West/Nordwest
Temperatur 11°C
Luftfeuchtigkeit 62%
Luftdruck 1024 hPa
Sichtweite: 8000 m
Aufgelockert bewölkt in der Höhe von 3000 ft

METAR: DTTF 160100Z 29005KT 8000 SCT030 11/04 Q1024 NOSIG

Zeit: 02:57 (01:57 UTC)

Prognose

Neuester Wetterbericht von vor 1 Stunde und 57 Minuten, um 00:00 UTC
Gültige Prognose vom 16 um 01 UTC bis 16 um 10 UTC
Wind 4 kt aus unterschiedlichen Richtungen
Sichtweite 10 km oder mehr
Aufgelockert bewölkt in der Höhe von 3000 ft

TAF: DTTF 160000Z 1601/1610 VRB04KT 9999 SCT030

Wetterbeobachtungen und Prognosen von mehr als 4000 Flughäfen (METAR und TAF Bericht).

Die verfügbaren Stationen werden durch gelbe und rote Markierungen auf der Karte dargestellt.

Führen Sie die Maus auf sie, um den Namen der Station zu sehen.

Darauf klicken, um die Beobachtung von Wetterbeobachtungen und Prognosen zu sehen.

Um die Karte zu ändern : klicken Sie auf den grünen Tasten mit einem schwarzen Kreuz Zum Vergrößern, auf den grünen Button mit einem Gedankenstrich zu verkleinern, oder auf die grünen Pfeile für benachbarte Karten.


METAR-TAF: